createdAt,value
2023-04-15T00:00:04.339Z,10.40
2023-04-15T00:02:41.089Z,10.40
2023-04-15T00:05:11.118Z,10.30
2023-04-15T00:07:40.306Z,10.30
2023-04-15T00:10:09.355Z,10.20
2023-04-15T00:12:37.619Z,10.10
2023-04-15T00:15:06.701Z,10.10
2023-04-15T00:17:34.856Z,10.20
2023-04-15T00:20:04.000Z,10.10
2023-04-15T00:22:33.372Z,10.10
2023-04-15T00:25:01.350Z,10.00
2023-04-15T00:27:29.682Z,10.10
2023-04-15T00:29:58.160Z,10.10
2023-04-15T00:32:26.453Z,10.10
2023-04-15T00:34:54.451Z,10.20
2023-04-15T00:37:22.990Z,10.10
2023-04-15T00:39:52.400Z,10.00
2023-04-15T00:42:21.697Z,9.90
2023-04-15T00:44:49.930Z,9.80
2023-04-15T00:47:18.809Z,9.80
2023-04-15T00:49:47.244Z,9.70
2023-04-15T00:52:15.268Z,9.70
2023-04-15T00:54:43.242Z,9.70
2023-04-15T00:57:12.618Z,9.70
2023-04-15T00:59:40.732Z,9.70
2023-04-15T01:02:08.827Z,9.70
2023-04-15T01:04:37.630Z,9.60
2023-04-15T01:07:05.681Z,9.70
2023-04-15T01:09:34.294Z,9.60
2023-04-15T01:12:02.518Z,9.60
2023-04-15T01:14:33.136Z,9.60
2023-04-15T01:17:01.298Z,9.70
2023-04-15T01:19:29.740Z,9.70
2023-04-15T01:21:57.919Z,9.70
2023-04-15T01:24:28.774Z,9.60
2023-04-15T01:26:58.465Z,9.50
2023-04-15T01:29:27.363Z,9.50
2023-04-15T01:31:56.839Z,9.40
2023-04-15T01:34:27.423Z,9.40
2023-04-15T01:36:55.689Z,9.40
2023-04-15T01:39:24.031Z,9.40
2023-04-15T01:41:52.267Z,9.40
2023-04-15T01:44:21.724Z,9.40
2023-04-15T01:46:49.852Z,9.30
2023-04-15T01:49:18.017Z,9.30
2023-04-15T01:51:46.036Z,9.20
2023-04-15T01:54:14.305Z,9.20
2023-04-15T01:56:42.287Z,9.10
2023-04-15T01:59:11.116Z,9.20
2023-04-15T02:01:41.062Z,9.10
2023-04-15T02:04:16.316Z,9.20
2023-04-15T02:06:44.551Z,9.20
2023-04-15T02:09:13.386Z,9.20
2023-04-15T02:11:41.451Z,9.20
2023-04-15T02:14:09.515Z,9.20
2023-04-15T02:16:37.592Z,9.20
2023-04-15T02:19:08.088Z,9.20
2023-04-15T02:21:38.845Z,9.20
2023-04-15T02:24:07.536Z,9.20
2023-04-15T02:26:35.532Z,9.10
2023-04-15T02:29:03.504Z,9.10
2023-04-15T02:31:34.058Z,9.10
2023-04-15T02:34:04.281Z,9.00
2023-04-15T02:36:34.565Z,9.00
2023-04-15T02:39:03.013Z,8.90
2023-04-15T02:41:31.640Z,8.90
2023-04-15T02:44:00.116Z,8.80
2023-04-15T02:46:31.450Z,8.70
2023-04-15T02:49:00.267Z,8.80
2023-04-15T02:51:33.148Z,8.80
2023-04-15T02:54:01.523Z,8.80
2023-04-15T02:56:30.237Z,8.80
2023-04-15T02:58:58.729Z,8.80
2023-04-15T03:01:27.161Z,8.80
2023-04-15T03:03:55.434Z,8.70
2023-04-15T03:06:24.661Z,8.70
2023-04-15T03:08:54.019Z,8.70
2023-04-15T03:11:22.681Z,8.80
2023-04-15T03:13:51.056Z,8.80
2023-04-15T03:16:41.828Z,8.80
2023-04-15T03:19:09.933Z,8.80
2023-04-15T03:21:40.401Z,8.60
2023-04-15T03:24:11.127Z,8.50
2023-04-15T03:26:39.584Z,8.40
2023-04-15T03:29:13.127Z,8.40
2023-04-15T03:31:41.821Z,8.40
2023-04-15T03:34:09.841Z,8.30
2023-04-15T03:36:38.237Z,8.30
2023-04-15T03:39:06.301Z,8.40
2023-04-15T03:41:35.630Z,8.40
2023-04-15T03:44:03.704Z,8.40
2023-04-15T03:46:32.014Z,8.50
2023-04-15T03:49:00.676Z,8.40
2023-04-15T03:51:28.896Z,8.30
2023-04-15T03:53:56.996Z,8.40
2023-04-15T03:56:25.095Z,8.30
2023-04-15T03:58:54.459Z,8.30
2023-04-15T04:01:22.573Z,8.30
2023-04-15T04:03:50.976Z,8.20
2023-04-15T04:06:19.151Z,8.20
2023-04-15T04:08:47.187Z,8.30
2023-04-15T04:11:15.220Z,8.20
2023-04-15T04:13:43.144Z,8.20
2023-04-15T04:16:12.623Z,8.20
2023-04-15T04:18:40.848Z,8.20
2023-04-15T04:21:08.893Z,8.10
2023-04-15T04:23:37.080Z,8.10
2023-04-15T04:26:05.106Z,8.10
2023-04-15T04:28:33.113Z,8.10
2023-04-15T04:31:01.252Z,7.90
2023-04-15T04:33:30.681Z,7.90
2023-04-15T04:35:58.621Z,7.70
2023-04-15T04:38:26.608Z,7.60
2023-04-15T04:40:54.842Z,7.60
2023-04-15T04:43:22.838Z,7.70
2023-04-15T04:45:50.920Z,7.80
2023-04-15T04:48:18.828Z,7.90
2023-04-15T04:50:48.182Z,7.90
2023-04-15T04:53:16.372Z,7.90
2023-04-15T04:55:44.344Z,7.90
2023-04-15T04:58:12.633Z,7.90
2023-04-15T05:00:42.159Z,7.90
2023-04-15T05:03:10.416Z,7.90
2023-04-15T05:05:39.492Z,8.00
2023-04-15T05:08:09.107Z,7.90
2023-04-15T05:10:37.604Z,7.90
2023-04-15T05:13:05.602Z,7.90
2023-04-15T05:15:35.006Z,7.90
2023-04-15T05:18:03.043Z,7.80
2023-04-15T05:20:31.168Z,7.80
2023-04-15T05:22:59.156Z,7.90
2023-04-15T05:25:28.474Z,7.80
2023-04-15T05:27:56.485Z,7.60
2023-04-15T05:30:24.513Z,7.60
2023-04-15T05:32:52.548Z,7.70
2023-04-15T05:35:20.547Z,7.80
2023-04-15T05:37:48.507Z,7.90
2023-04-15T05:40:16.657Z,7.90
2023-04-15T05:42:46.218Z,8.10
2023-04-15T05:45:14.176Z,8.20
2023-04-15T05:47:42.205Z,8.30
2023-04-15T05:50:11.098Z,8.30
2023-04-15T05:52:39.202Z,8.50
2023-04-15T05:55:07.753Z,8.60
2023-04-15T05:57:35.737Z,8.70
2023-04-15T06:00:06.367Z,8.70
2023-04-15T06:02:37.852Z,8.80
2023-04-15T06:05:09.692Z,8.90
2023-04-15T06:07:38.103Z,9.00
2023-04-15T06:10:07.892Z,9.10
2023-04-15T06:12:35.946Z,9.20
2023-04-15T06:15:06.621Z,9.30
2023-04-15T06:17:34.845Z,9.40
2023-04-15T06:20:02.875Z,9.50
2023-04-15T06:22:30.890Z,9.50
2023-04-15T06:24:58.979Z,9.50
2023-04-15T06:27:27.086Z,9.60
2023-04-15T06:29:55.033Z,9.70
2023-04-15T06:32:24.406Z,9.80
2023-04-15T06:34:52.404Z,9.90
2023-04-15T06:37:20.725Z,9.90
2023-04-15T06:39:48.662Z,9.90
2023-04-15T06:42:16.718Z,9.90
2023-04-15T06:44:44.915Z,10.10
2023-04-15T06:47:14.718Z,10.20
2023-04-15T06:49:44.916Z,10.30
2023-04-15T06:52:13.025Z,10.30
2023-04-15T06:54:40.992Z,10.40
2023-04-15T06:57:09.279Z,10.30
2023-04-15T06:59:37.295Z,10.40
2023-04-15T07:02:05.294Z,10.40
2023-04-15T07:04:33.608Z,10.40
2023-04-15T07:07:03.077Z,10.50
2023-04-15T07:09:32.363Z,10.50
2023-04-15T07:12:00.397Z,10.60
2023-04-15T07:14:29.466Z,10.80
2023-04-15T07:16:57.631Z,10.80
2023-04-15T07:19:25.672Z,10.90
2023-04-15T07:21:53.616Z,10.90
2023-04-15T07:24:26.599Z,11.00
2023-04-15T07:26:55.053Z,11.10
2023-04-15T07:29:23.006Z,11.20
2023-04-15T07:31:51.187Z,11.30
2023-04-15T07:34:19.966Z,11.40
2023-04-15T07:36:50.460Z,11.50
2023-04-15T07:39:18.491Z,11.60
2023-04-15T07:41:49.040Z,11.60
2023-04-15T07:44:17.083Z,11.70
2023-04-15T07:46:45.012Z,11.80
2023-04-15T07:49:13.430Z,11.80
2023-04-15T07:51:41.460Z,11.80
2023-04-15T07:54:09.503Z,11.90
2023-04-15T07:56:37.458Z,12.00
2023-04-15T07:59:06.986Z,12.00
2023-04-15T08:01:35.016Z,12.10
2023-04-15T08:04:03.813Z,12.10
2023-04-15T08:06:32.930Z,12.10
2023-04-15T08:09:01.144Z,12.20
2023-04-15T08:11:29.294Z,12.20
2023-04-15T08:13:57.331Z,12.20
2023-04-15T08:16:27.812Z,12.20
2023-04-15T08:18:57.922Z,12.20
2023-04-15T08:21:26.202Z,12.30
2023-04-15T08:23:55.245Z,12.40
2023-04-15T08:26:23.428Z,12.40
2023-04-15T08:28:51.581Z,12.50
2023-04-15T08:31:20.871Z,12.50
2023-04-15T08:33:52.077Z,12.50
2023-04-15T08:36:20.620Z,12.50
2023-04-15T08:38:48.624Z,12.50
2023-04-15T08:41:23.785Z,12.60
2023-04-15T08:43:55.492Z,12.60
2023-04-15T08:46:24.394Z,12.60
2023-04-15T08:48:57.424Z,12.50
2023-04-15T08:51:26.047Z,12.40
2023-04-15T08:53:54.291Z,12.40
2023-04-15T08:56:26.317Z,12.50
2023-04-15T08:58:54.750Z,12.50
2023-04-15T09:01:23.436Z,12.60
2023-04-15T09:03:54.451Z,12.70
2023-04-15T09:06:23.896Z,12.60
2023-04-15T09:08:52.965Z,12.60
2023-04-15T09:11:23.145Z,12.60
2023-04-15T09:13:51.499Z,12.50
2023-04-15T09:16:20.254Z,12.70
2023-04-15T09:18:48.319Z,12.80
2023-04-15T09:21:19.158Z,12.80
2023-04-15T09:23:57.869Z,12.70
2023-04-15T09:26:34.017Z,12.70
2023-04-15T09:29:09.268Z,12.70
2023-04-15T09:31:37.860Z,12.80
2023-04-15T09:34:06.906Z,12.90
2023-04-15T09:36:54.102Z,13.00
2023-04-15T09:39:22.454Z,13.00
2023-04-15T09:42:06.862Z,13.00
2023-04-15T09:44:35.197Z,12.90
2023-04-15T09:47:03.277Z,13.00
2023-04-15T09:49:31.691Z,13.00
2023-04-15T09:52:06.070Z,13.10
2023-04-15T09:54:36.541Z,13.30
2023-04-15T09:57:08.957Z,13.20
2023-04-15T09:59:37.225Z,13.20
2023-04-15T10:02:07.460Z,13.20
2023-04-15T10:04:39.230Z,13.20
2023-04-15T10:07:10.116Z,13.20
2023-04-15T10:09:40.341Z,13.20
2023-04-15T10:12:08.526Z,13.10
2023-04-15T10:14:39.000Z,13.20
2023-04-15T10:17:08.812Z,13.20
2023-04-15T10:19:39.273Z,13.10
2023-04-15T10:22:09.348Z,13.10
2023-04-15T10:24:37.767Z,13.10
2023-04-15T10:27:07.637Z,13.20
2023-04-15T10:29:35.862Z,13.40
2023-04-15T10:32:04.675Z,13.30
2023-04-15T10:34:33.566Z,13.30
2023-04-15T10:37:03.888Z,13.20
2023-04-15T10:39:45.692Z,13.20
2023-04-15T10:42:15.515Z,13.20
2023-04-15T10:44:44.717Z,13.20
2023-04-15T10:47:14.446Z,13.20
2023-04-15T10:49:46.811Z,13.20
2023-04-15T10:52:17.207Z,13.30
2023-04-15T10:54:46.537Z,13.30
2023-04-15T10:57:23.175Z,13.20
2023-04-15T11:00:18.737Z,13.40
2023-04-15T11:02:48.373Z,13.50
2023-04-15T11:05:17.706Z,13.50
2023-04-15T11:07:51.349Z,13.50
2023-04-15T11:10:54.838Z,13.40
2023-04-15T11:13:29.358Z,13.50
2023-04-15T11:16:02.163Z,13.50
2023-04-15T11:18:32.878Z,13.50
2023-04-15T11:21:03.431Z,13.50
2023-04-15T11:23:44.213Z,13.50
2023-04-15T11:26:14.896Z,13.30
2023-04-15T11:28:44.844Z,13.20
2023-04-15T11:31:14.192Z,13.30
2023-04-15T11:33:48.890Z,13.20
2023-04-15T11:36:16.902Z,13.20
2023-04-15T11:38:47.328Z,13.30
2023-04-15T11:41:21.234Z,13.30
2023-04-15T11:43:49.248Z,13.40
2023-04-15T11:46:17.799Z,13.40
2023-04-15T11:48:47.597Z,13.40
2023-04-15T11:51:15.958Z,13.40
2023-04-15T11:53:45.892Z,13.50
2023-04-15T11:56:21.422Z,13.40
2023-04-15T11:58:52.872Z,13.50
2023-04-15T12:01:20.832Z,13.40
2023-04-15T12:03:50.648Z,13.50
2023-04-15T12:06:20.750Z,13.40
2023-04-15T12:09:09.244Z,13.20
2023-04-15T12:11:41.613Z,13.20
2023-04-15T12:14:12.790Z,13.20
2023-04-15T12:16:48.878Z,13.10
2023-04-15T12:19:20.218Z,13.10
2023-04-15T12:21:49.271Z,13.00
2023-04-15T12:24:22.156Z,13.00
2023-04-15T12:26:53.138Z,12.90
2023-04-15T12:29:22.277Z,12.80
2023-04-15T12:31:52.480Z,12.80
2023-04-15T12:34:27.771Z,12.80
2023-04-15T12:36:56.363Z,12.90
2023-04-15T12:39:25.224Z,12.90
2023-04-15T12:41:54.833Z,12.60
2023-04-15T12:44:24.926Z,12.50
2023-04-15T12:46:54.414Z,12.50
2023-04-15T12:49:23.085Z,12.50
2023-04-15T12:51:52.631Z,12.60
2023-04-15T12:54:21.540Z,12.60
2023-04-15T12:56:50.942Z,12.60
2023-04-15T12:59:20.302Z,12.60
2023-04-15T13:01:49.503Z,12.60
2023-04-15T13:04:18.114Z,12.50
2023-04-15T13:06:46.347Z,12.40
2023-04-15T13:09:14.508Z,12.40
2023-04-15T13:11:42.706Z,12.40
2023-04-15T13:14:13.051Z,12.60
2023-04-15T13:16:42.562Z,12.50
2023-04-15T13:19:10.696Z,12.50
2023-04-15T13:21:38.648Z,12.40
2023-04-15T13:24:07.235Z,12.40
2023-04-15T13:26:35.989Z,12.40
2023-04-15T13:29:06.726Z,12.40
2023-04-15T13:31:34.870Z,12.40
2023-04-15T13:34:04.355Z,12.40
2023-04-15T13:36:32.718Z,12.40
2023-04-15T13:39:00.925Z,12.30
2023-04-15T13:41:28.884Z,12.20
2023-04-15T13:43:58.347Z,12.20
2023-04-15T13:46:26.648Z,12.10
2023-04-15T13:48:54.744Z,12.10
2023-04-15T13:51:24.041Z,12.10
2023-04-15T13:53:52.046Z,12.10
2023-04-15T13:56:20.064Z,12.20
2023-04-15T13:58:48.067Z,12.20
2023-04-15T14:01:16.319Z,12.30
2023-04-15T14:03:44.435Z,12.30
2023-04-15T14:06:13.638Z,12.30
2023-04-15T14:08:43.661Z,12.30
2023-04-15T14:11:11.805Z,12.30
2023-04-15T14:13:39.773Z,12.30
2023-04-15T14:16:08.144Z,12.30
2023-04-15T14:18:37.304Z,12.20
2023-04-15T14:21:06.532Z,12.20
2023-04-15T14:23:34.491Z,12.30
2023-04-15T14:26:03.863Z,12.40
2023-04-15T14:28:32.211Z,12.40
2023-04-15T14:31:00.530Z,12.50
2023-04-15T14:33:28.701Z,12.50
2023-04-15T14:35:56.853Z,12.40
2023-04-15T14:38:24.787Z,12.40
2023-04-15T14:40:52.750Z,12.40
2023-04-15T14:43:22.296Z,12.40
2023-04-15T14:45:51.541Z,12.40
2023-04-15T14:48:19.571Z,12.30
2023-04-15T14:50:48.576Z,12.20
2023-04-15T14:53:16.602Z,12.20
2023-04-15T14:55:45.140Z,12.20
2023-04-15T14:58:14.949Z,12.10
2023-04-15T15:00:47.403Z,12.10
2023-04-15T15:03:15.813Z,12.10
2023-04-15T15:05:46.271Z,12.10
2023-04-15T15:08:14.938Z,12.00
2023-04-15T15:10:48.510Z,12.00
2023-04-15T15:13:18.946Z,12.00
2023-04-15T15:15:50.142Z,11.90
2023-04-15T15:18:18.940Z,11.90
2023-04-15T15:20:47.863Z,12.00
2023-04-15T15:23:15.961Z,12.00
2023-04-15T15:25:44.401Z,12.00
2023-04-15T15:28:12.941Z,12.00
2023-04-15T15:30:41.331Z,12.00
2023-04-15T15:33:10.725Z,12.00
2023-04-15T15:35:38.900Z,12.00
2023-04-15T15:38:06.906Z,11.90
2023-04-15T15:40:35.012Z,11.90
2023-04-15T15:43:03.109Z,11.90
2023-04-15T15:45:31.439Z,11.90
2023-04-15T15:48:00.114Z,11.90
2023-04-15T15:50:29.875Z,11.80
2023-04-15T15:52:58.691Z,11.70
2023-04-15T15:55:27.239Z,11.70
2023-04-15T15:57:55.266Z,11.70
2023-04-15T16:00:23.668Z,11.70
2023-04-15T16:03:06.931Z,11.70
2023-04-15T16:05:37.251Z,11.70
2023-04-15T16:08:05.685Z,11.60
2023-04-15T16:10:33.799Z,11.70
2023-04-15T16:13:01.969Z,11.60
2023-04-15T16:15:29.986Z,11.60
2023-04-15T16:17:58.190Z,11.60
2023-04-15T16:20:26.475Z,11.60
2023-04-15T16:22:58.133Z,11.60
2023-04-15T16:25:26.294Z,11.60
2023-04-15T16:28:03.504Z,11.60
2023-04-15T16:30:36.020Z,11.50
2023-04-15T16:33:04.231Z,11.40
2023-04-15T16:35:34.540Z,11.40
2023-04-15T16:38:04.174Z,11.30
2023-04-15T16:40:32.846Z,11.40
2023-04-15T16:43:01.053Z,11.30
2023-04-15T16:45:29.076Z,11.30
2023-04-15T16:47:57.731Z,11.30
2023-04-15T16:50:25.994Z,11.30
2023-04-15T16:52:54.044Z,11.30
2023-04-15T16:55:23.379Z,11.30
2023-04-15T16:58:01.642Z,11.30
2023-04-15T17:00:32.233Z,11.30
2023-04-15T17:03:01.418Z,11.20
2023-04-15T17:05:30.531Z,11.30
2023-04-15T17:07:58.732Z,11.30
2023-04-15T17:10:28.519Z,11.30
2023-04-15T17:12:57.838Z,11.30
2023-04-15T17:15:26.346Z,11.30
2023-04-15T17:17:54.700Z,11.20
2023-04-15T17:20:22.771Z,11.20
2023-04-15T17:22:50.900Z,11.20
2023-04-15T17:25:19.412Z,11.20
2023-04-15T17:27:48.782Z,11.20
2023-04-15T17:30:16.844Z,11.20
2023-04-15T17:32:44.965Z,11.20
2023-04-15T17:35:13.032Z,11.20
2023-04-15T17:37:41.117Z,11.20
2023-04-15T17:40:10.083Z,11.10
2023-04-15T17:42:38.086Z,11.10
2023-04-15T17:45:08.755Z,11.10
2023-04-15T17:47:36.750Z,11.10
2023-04-15T17:50:05.043Z,11.00
2023-04-15T17:52:33.096Z,11.00
2023-04-15T17:55:01.124Z,11.00
2023-04-15T17:57:29.278Z,11.00
2023-04-15T17:59:57.367Z,11.00
2023-04-15T18:02:26.874Z,11.00
2023-04-15T18:04:55.074Z,11.00
2023-04-15T18:07:23.220Z,11.00
2023-04-15T18:09:51.533Z,10.90
2023-04-15T18:12:19.614Z,11.00
2023-04-15T18:14:47.672Z,10.90
2023-04-15T18:17:15.680Z,10.90
2023-04-15T18:19:45.943Z,10.90
2023-04-15T18:22:14.021Z,10.90
2023-04-15T18:24:42.575Z,10.90
2023-04-15T18:27:10.592Z,11.00
2023-04-15T18:29:38.823Z,10.90
2023-04-15T18:32:06.938Z,10.80
2023-04-15T18:34:35.001Z,10.70
2023-04-15T18:37:05.299Z,10.60
2023-04-15T18:39:33.364Z,10.60
2023-04-15T18:42:03.389Z,10.60
2023-04-15T18:44:31.573Z,10.60
2023-04-15T18:46:59.604Z,10.60
2023-04-15T18:49:28.138Z,10.50
2023-04-15T18:51:56.151Z,10.50
2023-04-15T18:54:25.590Z,10.40
2023-04-15T18:56:53.671Z,10.30
2023-04-15T18:59:29.386Z,10.30
2023-04-15T19:01:59.047Z,10.30
2023-04-15T19:04:28.959Z,10.30
2023-04-15T19:06:58.758Z,10.30
2023-04-15T19:09:29.604Z,10.30
2023-04-15T19:11:57.806Z,10.30
2023-04-15T19:14:25.815Z,10.20
2023-04-15T19:16:53.986Z,10.30
2023-04-15T19:19:22.105Z,10.30
2023-04-15T19:21:50.377Z,10.20
2023-04-15T19:24:18.749Z,10.20
2023-04-15T19:26:49.357Z,10.10
2023-04-15T19:29:17.592Z,10.10
2023-04-15T19:31:45.642Z,10.10
2023-04-15T19:34:13.753Z,10.00
2023-04-15T19:36:41.953Z,10.00
2023-04-15T19:39:10.616Z,10.00
2023-04-15T19:41:39.311Z,9.90
2023-04-15T19:44:08.716Z,10.00
2023-04-15T19:46:37.110Z,10.00
2023-04-15T19:49:05.613Z,10.00
2023-04-15T19:51:33.956Z,9.90
2023-04-15T19:54:01.995Z,9.90
2023-04-15T19:56:32.289Z,9.90
2023-04-15T19:59:01.991Z,9.90
2023-04-15T20:01:31.870Z,9.90
2023-04-15T20:04:00.280Z,9.90
2023-04-15T20:06:28.537Z,9.90
2023-04-15T20:08:56.546Z,9.80
2023-04-15T20:12:46.227Z,9.80
2023-04-15T20:14:17.512Z,9.80
2023-04-15T20:16:46.997Z,9.80
2023-04-15T20:19:15.024Z,9.80
2023-04-15T20:21:43.143Z,9.70
2023-04-15T20:24:11.236Z,9.80
2023-04-15T20:26:39.299Z,9.70
2023-04-15T20:29:07.521Z,9.70
2023-04-15T20:31:36.125Z,9.70
2023-04-15T20:34:05.719Z,9.70
2023-04-15T20:36:33.733Z,9.60
2023-04-15T20:39:01.790Z,9.70
2023-04-15T20:41:29.889Z,9.80
2023-04-15T20:43:57.948Z,9.80
2023-04-15T20:46:27.378Z,9.80
2023-04-15T20:48:56.070Z,9.70
2023-04-15T20:51:27.185Z,9.60
2023-04-15T20:53:55.535Z,9.70
2023-04-15T20:56:23.584Z,9.70
2023-04-15T20:58:51.551Z,9.70
2023-04-15T21:01:19.629Z,9.70
2023-04-15T21:03:47.726Z,9.60
2023-04-15T21:06:15.898Z,9.70
2023-04-15T21:08:45.250Z,9.60
2023-04-15T21:11:20.862Z,9.60
2023-04-15T21:13:56.658Z,9.70
2023-04-15T21:16:24.705Z,9.60
2023-04-15T21:18:52.685Z,9.60
2023-04-15T21:21:20.657Z,9.60
2023-04-15T21:23:50.042Z,9.60
2023-04-15T21:26:18.523Z,9.60
2023-04-15T21:28:46.550Z,9.60
2023-04-15T21:31:14.544Z,9.60
2023-04-15T21:33:42.590Z,9.60
2023-04-15T21:36:10.803Z,9.60
2023-04-15T21:38:38.810Z,9.60
2023-04-15T21:41:09.700Z,9.60
2023-04-15T21:43:38.201Z,9.60
2023-04-15T21:46:23.090Z,9.50
2023-04-15T21:48:54.094Z,9.60
2023-04-15T21:51:22.285Z,9.70
2023-04-15T21:53:50.300Z,9.70
2023-04-15T21:56:20.236Z,9.70
2023-04-15T21:58:48.384Z,9.70
2023-04-15T22:01:16.857Z,9.70
2023-04-15T22:03:45.178Z,9.70
2023-04-15T22:06:13.810Z,9.60
2023-04-15T22:08:55.074Z,9.60
2023-04-15T22:11:27.975Z,9.60
2023-04-15T22:13:57.111Z,9.60
2023-04-15T22:16:26.267Z,9.60
2023-04-15T22:18:54.527Z,9.60
2023-04-15T22:21:22.586Z,9.60
2023-04-15T22:23:52.895Z,9.60
2023-04-15T22:26:42.247Z,9.60
2023-04-15T22:29:10.641Z,9.60
2023-04-15T22:31:38.722Z,9.60
2023-04-15T22:34:06.827Z,9.60
2023-04-15T22:36:34.849Z,9.60
2023-04-15T22:39:02.977Z,9.60
2023-04-15T22:41:31.079Z,9.60
2023-04-15T22:44:00.404Z,9.60
2023-04-15T22:46:28.567Z,9.60
2023-04-15T22:48:56.544Z,9.60
2023-04-15T22:51:26.886Z,9.50
2023-04-15T22:53:55.145Z,9.50
2023-04-15T22:56:24.382Z,9.50
2023-04-15T22:58:52.927Z,9.50
2023-04-15T23:01:22.268Z,9.40
2023-04-15T23:03:57.295Z,9.50
2023-04-15T23:06:33.543Z,9.50
2023-04-15T23:09:01.522Z,9.50
2023-04-15T23:11:29.526Z,9.50
2023-04-15T23:13:57.578Z,9.50
2023-04-15T23:16:27.955Z,9.50
2023-04-15T23:18:55.992Z,9.40
2023-04-15T23:21:25.956Z,9.50
2023-04-15T23:23:54.138Z,9.40
2023-04-15T23:26:22.094Z,9.40
2023-04-15T23:28:50.038Z,9.40
2023-04-15T23:31:18.099Z,9.40
2023-04-15T23:33:47.496Z,9.40
2023-04-15T23:36:15.530Z,9.50
2023-04-15T23:38:43.635Z,9.50
2023-04-15T23:41:12.092Z,9.50
2023-04-15T23:43:40.257Z,9.50
2023-04-15T23:46:08.496Z,9.50
2023-04-15T23:48:36.474Z,9.50
2023-04-15T23:51:06.569Z,9.50
2023-04-15T23:53:34.589Z,9.60
2023-04-15T23:56:02.672Z,9.60
2023-04-15T23:58:31.824Z,9.50
